N346EA KCMH-KCAK
Flight info
| Callsign | N346EA |
|---|---|
| Flight time | 0h 31m |
| Altitude | 15000 |
| Route | HUUVR HUUVR1 |
| Aircraft | TBM9/L-SDFGRWY/S |
Departure
| Time | 2026-05-09 01:01 |
|---|---|
| Airport | John Glenn Columbus International Airport (KCMH) |
Arrival
| Time | 2026-05-09 01:33 |
|---|---|
| Airport | Akron Canton Regional Airport (KCAK) |
| Time | Latitude | Longitude | Altitude | Speed | Heading |
|---|---|---|---|---|---|
| 2026-05-09 00:46 | 39.99627 | -82.89131 | 817 ft | 0 kts | 182° |
| 2026-05-09 00:56 | 39.99636 | -82.89111 | 817 ft | 7 kts | 24° |
| 2026-05-09 00:56 | 39.99650 | -82.89033 | 816 ft | 14 kts | 101° |
| 2026-05-09 00:56 | 39.99615 | -82.88887 | 814 ft | 19 kts | 92° |
| 2026-05-09 00:57 | 39.99601 | -82.88690 | 814 ft | 24 kts | 95° |
| 2026-05-09 00:57 | 39.99588 | -82.88461 | 814 ft | 26 kts | 93° |
| 2026-05-09 00:57 | 39.99616 | -82.88236 | 814 ft | 25 kts | 93° |
| 2026-05-09 00:57 | 39.99600 | -82.88006 | 817 ft | 25 kts | 95° |
| 2026-05-09 00:58 | 39.99674 | -82.87908 | 818 ft | 17 kts | 5° |
| 2026-05-09 00:58 | 39.99784 | -82.87901 | 818 ft | 11 kts | 6° |
| 2026-05-09 00:58 | 39.99825 | -82.87898 | 818 ft | 6 kts | 1° |
| 2026-05-09 00:58 | 39.99835 | -82.87898 | 818 ft | 0 kts | 356° |
| 2026-05-09 00:59 | 39.99892 | -82.87899 | 817 ft | 22 kts | 349° |
| 2026-05-09 00:59 | 39.99977 | -82.87946 | 816 ft | 12 kts | 352° |
| 2026-05-09 00:59 | 40.00099 | -82.87951 | 814 ft | 0 kts | 12° |
| 2026-05-09 01:00 | 40.00085 | -82.87952 | 814 ft | 1 kts | 0° |
| 2026-05-09 01:00 | 40.00113 | -82.87951 | 814 ft | 19 kts | 358° |
| 2026-05-09 01:00 | 40.00163 | -82.88077 | 815 ft | 18 kts | 275° |
| 2026-05-09 01:01 | 40.00190 | -82.88428 | 821 ft | 72 kts | 273° |
| 2026-05-09 01:01 | 40.00220 | -82.89318 | 1027 ft | 114 kts | 270° |
| 2026-05-09 01:01 | 40.00229 | -82.90539 | 1316 ft | 152 kts | 270° |
| 2026-05-09 01:01 | 40.00327 | -82.92017 | 1793 ft | 172 kts | 288° |
| 2026-05-09 01:02 | 40.01059 | -82.93220 | 2613 ft | 170 kts | 313° |
| 2026-05-09 01:02 | 40.01936 | -82.94266 | 3340 ft | 173 kts | 313° |
| 2026-05-09 01:02 | 40.02841 | -82.95320 | 3892 ft | 185 kts | 313° |
| 2026-05-09 01:02 | 40.03879 | -82.96500 | 4280 ft | 200 kts | 313° |
| 2026-05-09 01:03 | 40.04927 | -82.97671 | 4906 ft | 201 kts | 313° |
| 2026-05-09 01:03 | 40.06032 | -82.98874 | 5293 ft | 206 kts | 313° |
| 2026-05-09 01:03 | 40.07135 | -83.00056 | 5829 ft | 206 kts | 313° |
| 2026-05-09 01:03 | 40.08252 | -83.01243 | 6323 ft | 207 kts | 313° |
| 2026-05-09 01:04 | 40.09375 | -83.02420 | 6812 ft | 207 kts | 313° |
| 2026-05-09 01:04 | 40.10523 | -83.03570 | 7300 ft | 211 kts | 319° |
| 2026-05-09 01:04 | 40.12008 | -83.04135 | 7526 ft | 241 kts | 353° |
| 2026-05-09 01:04 | 40.13662 | -83.03588 | 7903 ft | 254 kts | 25° |
| 2026-05-09 01:05 | 40.14935 | -83.01958 | 8267 ft | 262 kts | 56° |
| 2026-05-09 01:05 | 40.15830 | -82.99871 | 8625 ft | 264 kts | 62° |
| 2026-05-09 01:05 | 40.17566 | -82.95595 | 9304 ft | 268 kts | 59° |
| 2026-05-09 01:06 | 40.18470 | -82.93495 | 9636 ft | 270 kts | 59° |
| 2026-05-09 01:06 | 40.19384 | -82.91340 | 9933 ft | 271 kts | 59° |
| 2026-05-09 01:06 | 40.20296 | -82.89173 | 10209 ft | 272 kts | 59° |
| 2026-05-09 01:06 | 40.21211 | -82.87002 | 10477 ft | 273 kts | 59° |
| 2026-05-09 01:07 | 40.22131 | -82.84824 | 10724 ft | 273 kts | 59° |
| 2026-05-09 01:07 | 40.23052 | -82.82640 | 10949 ft | 274 kts | 59° |
| 2026-05-09 01:07 | 40.23973 | -82.80455 | 11180 ft | 274 kts | 59° |
| 2026-05-09 01:07 | 40.24894 | -82.78266 | 11408 ft | 274 kts | 58° |
| 2026-05-09 01:08 | 40.25815 | -82.76082 | 11595 ft | 275 kts | 58° |
| 2026-05-09 01:08 | 40.26744 | -82.73875 | 11805 ft | 276 kts | 58° |
| 2026-05-09 01:08 | 40.27658 | -82.71696 | 12046 ft | 276 kts | 58° |
| 2026-05-09 01:08 | 40.28596 | -82.69463 | 12286 ft | 277 kts | 58° |
| 2026-05-09 01:09 | 40.29524 | -82.67253 | 12537 ft | 277 kts | 58° |
| 2026-05-09 01:09 | 40.30445 | -82.65057 | 12802 ft | 277 kts | 58° |
| 2026-05-09 01:09 | 40.31375 | -82.62833 | 13011 ft | 279 kts | 58° |
| 2026-05-09 01:09 | 40.32091 | -82.61125 | 13012 ft | 285 kts | 58° |
| 2026-05-09 01:10 | 40.33073 | -82.58774 | 13014 ft | 290 kts | 58° |
| 2026-05-09 01:10 | 40.34046 | -82.56442 | 13015 ft | 293 kts | 58° |
| 2026-05-09 01:10 | 40.35034 | -82.54076 | 13020 ft | 296 kts | 58° |
| 2026-05-09 01:10 | 40.36012 | -82.51733 | 13023 ft | 298 kts | 58° |
| 2026-05-09 01:11 | 40.37010 | -82.49343 | 13024 ft | 298 kts | 58° |
| 2026-05-09 01:11 | 40.38009 | -82.46948 | 13024 ft | 300 kts | 58° |
| 2026-05-09 01:11 | 40.39012 | -82.44539 | 13023 ft | 301 kts | 58° |
| 2026-05-09 01:11 | 40.40015 | -82.42126 | 13024 ft | 302 kts | 58° |
| 2026-05-09 01:12 | 40.41020 | -82.39709 | 13023 ft | 302 kts | 58° |
| 2026-05-09 01:12 | 40.42025 | -82.37291 | 13022 ft | 301 kts | 58° |
| 2026-05-09 01:12 | 40.42956 | -82.35052 | 13018 ft | 302 kts | 58° |
| 2026-05-09 01:12 | 40.43963 | -82.32627 | 13018 ft | 302 kts | 58° |
| 2026-05-09 01:13 | 40.44951 | -82.30241 | 13019 ft | 303 kts | 58° |
| 2026-05-09 01:13 | 40.45959 | -82.27804 | 13021 ft | 304 kts | 58° |
| 2026-05-09 01:13 | 40.46967 | -82.25367 | 13020 ft | 305 kts | 58° |
| 2026-05-09 01:13 | 40.47988 | -82.22900 | 13021 ft | 306 kts | 58° |
| 2026-05-09 01:14 | 40.49008 | -82.20434 | 13017 ft | 307 kts | 59° |
| 2026-05-09 01:14 | 40.50026 | -82.17964 | 13022 ft | 308 kts | 59° |
| 2026-05-09 01:14 | 40.51047 | -82.15487 | 13021 ft | 308 kts | 59° |
| 2026-05-09 01:14 | 40.52057 | -82.13039 | 13015 ft | 309 kts | 58° |
| 2026-05-09 01:15 | 40.53079 | -82.10562 | 13017 ft | 309 kts | 58° |
| 2026-05-09 01:15 | 40.54100 | -82.08078 | 13016 ft | 308 kts | 59° |
| 2026-05-09 01:15 | 40.55116 | -82.05601 | 13021 ft | 307 kts | 58° |
| 2026-05-09 01:15 | 40.56134 | -82.03128 | 13018 ft | 307 kts | 58° |
| 2026-05-09 01:16 | 40.57153 | -82.00655 | 13018 ft | 307 kts | 59° |
| 2026-05-09 01:16 | 40.58168 | -81.98175 | 13018 ft | 308 kts | 59° |
| 2026-05-09 01:16 | 40.59182 | -81.95697 | 13023 ft | 308 kts | 59° |
| 2026-05-09 01:17 | 40.61244 | -81.90638 | 12035 ft | 316 kts | 59° |
| 2026-05-09 01:17 | 40.62286 | -81.88083 | 11526 ft | 316 kts | 60° |
| 2026-05-09 01:17 | 40.63324 | -81.85549 | 11028 ft | 315 kts | 60° |
| 2026-05-09 01:17 | 40.64351 | -81.83048 | 10633 ft | 311 kts | 60° |
| 2026-05-09 01:18 | 40.65373 | -81.80552 | 10241 ft | 309 kts | 61° |
| 2026-05-09 01:18 | 40.66385 | -81.78069 | 9869 ft | 307 kts | 61° |
| 2026-05-09 01:18 | 40.67386 | -81.75600 | 9449 ft | 305 kts | 62° |
| 2026-05-09 01:18 | 40.68376 | -81.73140 | 9066 ft | 302 kts | 64° |
| 2026-05-09 01:19 | 40.69210 | -81.70658 | 8971 ft | 292 kts | 66° |
| 2026-05-09 01:19 | 40.70035 | -81.68211 | 8678 ft | 292 kts | 66° |
| 2026-05-09 01:19 | 40.70584 | -81.66599 | 8488 ft | 293 kts | 66° |
| 2026-05-09 01:19 | 40.71420 | -81.64122 | 8203 ft | 295 kts | 66° |
| 2026-05-09 01:20 | 40.72249 | -81.61636 | 7926 ft | 296 kts | 66° |
| 2026-05-09 01:20 | 40.73080 | -81.59164 | 7704 ft | 295 kts | 66° |
| 2026-05-09 01:20 | 40.73947 | -81.56719 | 7470 ft | 293 kts | 60° |
| 2026-05-09 01:20 | 40.75189 | -81.54617 | 7230 ft | 291 kts | 44° |
| 2026-05-09 01:21 | 40.76573 | -81.52680 | 7021 ft | 290 kts | 45° |
| 2026-05-09 01:21 | 40.77928 | -81.50713 | 6792 ft | 289 kts | 46° |
| 2026-05-09 01:21 | 40.79283 | -81.48757 | 6557 ft | 288 kts | 45° |
| 2026-05-09 01:21 | 40.80599 | -81.46880 | 6351 ft | 287 kts | 45° |
| 2026-05-09 01:22 | 40.81880 | -81.45050 | 6118 ft | 286 kts | 45° |
| 2026-05-09 01:22 | 40.83223 | -81.43115 | 5889 ft | 286 kts | 45° |
| 2026-05-09 01:22 | 40.84566 | -81.41181 | 5662 ft | 284 kts | 45° |
| 2026-05-09 01:22 | 40.85901 | -81.39261 | 5439 ft | 283 kts | 45° |
| 2026-05-09 01:23 | 40.87217 | -81.37369 | 5218 ft | 283 kts | 45° |
| 2026-05-09 01:23 | 40.88543 | -81.35459 | 5050 ft | 280 kts | 45° |
| 2026-05-09 01:23 | 40.89858 | -81.33594 | 5046 ft | 274 kts | 44° |
| 2026-05-09 01:23 | 40.91160 | -81.31767 | 5043 ft | 271 kts | 44° |
| 2026-05-09 01:24 | 40.92548 | -81.30117 | 5027 ft | 264 kts | 26° |
| 2026-05-09 01:24 | 40.94243 | -81.29345 | 4924 ft | 259 kts | 5° |
| 2026-05-09 01:24 | 40.96031 | -81.28927 | 4623 ft | 264 kts | 3° |
| 2026-05-09 01:24 | 40.97852 | -81.28526 | 4314 ft | 267 kts | 3° |
| 2026-05-09 01:25 | 40.99688 | -81.28136 | 3999 ft | 266 kts | 2° |
| 2026-05-09 01:25 | 41.01520 | -81.27758 | 3698 ft | 265 kts | 2° |
| 2026-05-09 01:25 | 41.03335 | -81.27387 | 3398 ft | 263 kts | 2° |
| 2026-05-09 01:25 | 41.05146 | -81.27011 | 3095 ft | 262 kts | 3° |
| 2026-05-09 01:26 | 41.06897 | -81.26756 | 3025 ft | 248 kts | 351° |
| 2026-05-09 01:26 | 41.08452 | -81.27361 | 2847 ft | 223 kts | 321° |
| 2026-05-09 01:26 | 41.09369 | -81.28792 | 2832 ft | 194 kts | 287° |
| 2026-05-09 01:26 | 41.09604 | -81.30488 | 2836 ft | 183 kts | 272° |
| 2026-05-09 01:27 | 41.09719 | -81.32154 | 2838 ft | 181 kts | 272° |
| 2026-05-09 01:27 | 41.09831 | -81.33807 | 2824 ft | 179 kts | 272° |
| 2026-05-09 01:27 | 41.09941 | -81.35453 | 2827 ft | 179 kts | 272° |
| 2026-05-09 01:27 | 41.10049 | -81.37094 | 2830 ft | 179 kts | 272° |
| 2026-05-09 01:28 | 41.10149 | -81.38732 | 2825 ft | 177 kts | 269° |
| 2026-05-09 01:28 | 41.09774 | -81.40236 | 2825 ft | 176 kts | 234° |
| 2026-05-09 01:28 | 41.08749 | -81.41177 | 2832 ft | 182 kts | 214° |
| 2026-05-09 01:28 | 41.07619 | -81.41895 | 2827 ft | 182 kts | 213° |
| 2026-05-09 01:29 | 41.06471 | -81.42603 | 2832 ft | 182 kts | 211° |
| 2026-05-09 01:29 | 41.05259 | -81.43163 | 2830 ft | 189 kts | 200° |
| 2026-05-09 01:29 | 41.03926 | -81.43368 | 2830 ft | 195 kts | 192° |
| 2026-05-09 01:29 | 41.02576 | -81.43480 | 2828 ft | 194 kts | 191° |
| 2026-05-09 01:30 | 41.01235 | -81.43554 | 2829 ft | 194 kts | 191° |
| 2026-05-09 01:30 | 40.99870 | -81.43629 | 2701 ft | 200 kts | 190° |
| 2026-05-09 01:30 | 40.98461 | -81.43714 | 2436 ft | 200 kts | 189° |
| 2026-05-09 01:30 | 40.97111 | -81.43787 | 2179 ft | 190 kts | 189° |
| 2026-05-09 01:31 | 40.95890 | -81.43846 | 1925 ft | 138 kts | 186° |
| 2026-05-09 01:31 | 40.95091 | -81.43881 | 1752 ft | 104 kts | 186° |
| 2026-05-09 01:31 | 40.94397 | -81.43928 | 1611 ft | 97 kts | 184° |
| 2026-05-09 01:31 | 40.93987 | -81.43950 | 1528 ft | 95 kts | 183° |
| 2026-05-09 01:32 | 40.93410 | -81.43981 | 1413 ft | 95 kts | 183° |
| 2026-05-09 01:32 | 40.92789 | -81.44016 | 1298 ft | 92 kts | 183° |
| 2026-05-09 01:32 | 40.92188 | -81.44050 | 1222 ft | 76 kts | 183° |
| 2026-05-09 01:32 | 40.91732 | -81.44077 | 1216 ft | 56 kts | 183° |
| 2026-05-09 01:33 | 40.91405 | -81.44093 | 1217 ft | 37 kts | 180° |
| 2026-05-09 01:33 | 40.91269 | -81.43970 | 1217 ft | 1 kts | 140° |
| 2026-05-09 01:36 | 40.91251 | -81.43941 | 1216 ft | 17 kts | 110° |
| 2026-05-09 01:37 | 40.91348 | -81.43861 | 1217 ft | 23 kts | 343° |
| 2026-05-09 01:37 | 40.91481 | -81.43946 | 1218 ft | 28 kts | 346° |
| 2026-05-09 01:37 | 40.91659 | -81.43848 | 1220 ft | 26 kts | 52° |
| 2026-05-09 01:37 | 40.91712 | -81.43703 | 1222 ft | 13 kts | 94° |
| 2026-05-09 01:38 | 40.91695 | -81.43621 | 1223 ft | 7 kts | 47° |
| 2026-05-09 01:38 | 40.91705 | -81.43610 | 1223 ft | 0 kts | 38° |